Time;durP1;ratioP1;P1;durP2;ratioP2;P2;SDS_P1;SDS_P2;PMS_P1;PMS_P2;Temp;Humidity;BMP_temperature;BMP_pressure;BME280_temperature;BME280_humidity;BME280_pressure;Samples;Min_cycle;Max_cycle;Signal;HPM_P1;HPM_P2
2023/01/27 00:02:05;;;;;;;3.00;2.37;;;4.50;99.90;;;;;;4864760;29;20493;-76
2023/01/27 00:04:33;;;;;;;3.90;2.60;;;4.40;99.90;;;;;;4869491;29;20446;-74
2023/01/27 00:09:59;;;;;;;8.10;3.53;;;4.50;99.90;;;;;;4839239;29;20479;-74
2023/01/27 00:15:42;;;;;;;9.17;2.77;;;4.60;99.90;;;;;;4866475;29;20485;-74
2023/01/27 00:18:22;;;;;;;6.30;2.97;;;4.70;99.90;;;;;;4869066;29;20958;-74
2023/01/27 00:26:19;;;;;;;3.73;2.87;;;4.70;99.90;;;;;;4976918;28;20492;-75
2023/01/27 00:34:44;;;;;;;7.97;3.10;;;4.60;99.90;;;;;;4975851;28;20429;-78
2023/01/27 00:49:01;;;;;;;3.80;1.80;;;4.40;99.90;;;;;;5008166;28;20455;-76
2023/01/27 00:51:35;;;;;;;8.50;2.37;;;4.60;99.90;;;;;;5014420;28;20854;-77
2023/01/27 01:00:37;;;;;;;7.60;4.10;;;4.80;99.90;;;;;;5042839;28;20522;-75
2023/01/27 01:06:52;;;;;;;8.10;3.23;;;4.60;99.90;;;;;;5033912;28;20468;-74
2023/01/27 01:09:18;;;;;;;5.13;2.60;;;4.40;99.90;;;;;;5042391;28;20438;-78
2023/01/27 01:15:34;;;;;;;3.67;2.30;;;4.30;99.90;;;;;;4949876;28;20462;-74
2023/01/27 01:18:02;;;;;;;5.53;3.40;;;4.30;99.90;;;;;;4947683;28;20488;-79
2023/01/27 01:20:36;;;;;;;6.00;3.87;;;4.00;99.90;;;;;;4956700;28;20475;-79
2023/01/27 01:23:03;;;;;;;12.00;2.97;;;3.90;99.90;;;;;;4954858;28;20541;-78
2023/01/27 01:25:31;;;;;;;1.97;1.63;;;3.90;99.90;;;;;;4960568;28;20464;-78
2023/01/27 01:27:58;;;;;;;4.63;2.33;;;3.80;99.90;;;;;;4950052;28;22559;-79
2023/01/27 01:31:17;;;;;;;;;;;;;;;;;;;;;
2023/01/27 01:47:22;;;;;;;9.33;5.00;;;4.00;99.90;;;;;;4755391;29;20570;-74
2023/01/27 01:49:54;;;;;;;2.07;1.87;;;3.90;99.90;;;;;;4876369;29;20444;-75
2023/01/27 01:52:36;;;;;;;6.40;3.40;;;4.00;99.90;;;;;;4877159;29;21208;-77
2023/01/27 01:55:03;;;;;;;11.13;4.70;;;3.80;99.90;;;;;;4871149;29;20456;-78
2023/01/27 01:57:41;;;;;;;6.03;2.47;;;3.80;99.90;;;;;;4872676;29;20453;-74
2023/01/27 02:00:28;;;;;;;5.43;3.37;;;3.90;99.90;;;;;;4883700;29;20430;-76
2023/01/27 02:08:52;;;;;;;5.47;3.00;;;4.00;99.90;;;;;;4864216;29;20444;-77
2023/01/27 02:11:32;;;;;;;4.50;4.10;;;4.10;99.90;;;;;;4867083;29;20557;-75
2023/01/27 02:14:04;;;;;;;3.83;1.53;;;4.10;99.90;;;;;;4923346;28;20478;-74
2023/01/27 02:16:36;;;;;;;9.47;3.90;;;4.20;99.90;;;;;;5042317;28;20460;-74
2023/01/27 02:19:24;;;;;;;7.27;3.63;;;4.00;99.90;;;;;;5039549;28;20446;-76
2023/01/27 02:22:22;;;;;;;6.40;3.33;;;4.00;99.90;;;;;;5021282;28;20507;-73
2023/01/27 02:24:56;;;;;;;5.93;3.00;;;3.90;99.90;;;;;;5030720;28;20435;-77
2023/01/27 02:27:30;;;;;;;7.07;3.10;;;3.90;99.90;;;;;;5029956;28;20652;-78
2023/01/27 02:29:57;;;;;;;8.00;5.33;;;3.90;99.90;;;;;;5026313;28;21817;-78
2023/01/27 02:32:26;;;;;;;8.20;3.60;;;3.90;99.90;;;;;;5032076;28;20659;-79
2023/01/27 02:34:55;;;;;;;7.33;4.47;;;3.80;99.90;;;;;;5031366;28;20441;-77
2023/01/27 02:37:27;;;;;;;8.70;5.03;;;3.80;99.90;;;;;;5031078;28;20489;-76
2023/01/27 02:39:56;;;;;;;11.53;4.43;;;3.70;99.90;;;;;;5037754;28;20431;-78
2023/01/27 02:42:24;;;;;;;8.40;5.90;;;3.80;99.90;;;;;;5036384;28;20508;-76
2023/01/27 02:44:52;;;;;;;7.07;4.03;;;3.90;99.90;;;;;;5041169;28;20462;-77
2023/01/27 02:47:21;;;;;;;7.43;3.50;;;3.80;99.90;;;;;;5036812;28;20492;-78
2023/01/27 02:49:54;;;;;;;7.10;3.00;;;3.90;99.90;;;;;;5040705;28;20986;-77
2023/01/27 02:52:25;;;;;;;8.67;3.73;;;3.80;99.90;;;;;;5034927;28;20486;-77
2023/01/27 02:55:00;;;;;;;4.40;3.93;;;3.90;99.90;;;;;;5027168;28;20435;-77
2023/01/27 02:57:32;;;;;;;11.83;3.57;;;3.90;99.90;;;;;;5019858;28;20516;-75
2023/01/27 03:00:15;;;;;;;6.73;3.70;;;3.80;99.90;;;;;;5025651;28;20431;-75
2023/01/27 03:02:54;;;;;;;13.60;5.07;;;3.90;99.90;;;;;;5033493;28;21733;-77
2023/01/27 03:05:26;;;;;;;8.03;4.13;;;3.90;99.90;;;;;;5040734;28;20562;-76
2023/01/27 03:07:53;;;;;;;22.93;6.77;;;3.90;99.90;;;;;;5037316;28;20470;-75
2023/01/27 03:10:27;;;;;;;3.67;2.20;;;3.90;99.90;;;;;;4998251;28;20462;-76
2023/01/27 03:13:08;;;;;;;6.93;3.37;;;3.90;99.90;;;;;;5038114;28;20434;-73
2023/01/27 03:18:26;;;;;;;5.73;4.33;;;4.00;99.90;;;;;;5054815;28;20427;-77
2023/01/27 03:21:06;;;;;;;4.80;3.37;;;4.00;99.90;;;;;;5045552;28;20469;-74
2023/01/27 03:23:37;;;;;;;10.30;5.10;;;4.00;99.90;;;;;;5033589;28;20466;-77
2023/01/27 03:26:08;;;;;;;7.90;4.17;;;4.00;99.90;;;;;;5033003;28;21144;-77
2023/01/27 03:28:39;;;;;;;10.70;5.03;;;4.00;99.90;;;;;;5032308;28;20539;-80
2023/01/27 03:31:18;;;;;;;10.53;4.43;;;4.00;99.90;;;;;;5038151;28;20485;-76
2023/01/27 03:33:46;;;;;;;9.93;3.73;;;3.90;99.90;;;;;;5028679;28;20447;-76
2023/01/27 03:48:08;;;;;;;6.43;4.33;;;3.90;99.90;;;;;;5015983;28;20566;-77
2023/01/27 03:50:51;;;;;;;8.50;4.77;;;3.90;99.90;;;;;;5037532;28;20546;-73
2023/01/27 03:53:23;;;;;;;5.97;3.00;;;3.90;99.90;;;;;;5041927;28;21022;-77
2023/01/27 03:56:00;;;;;;;10.70;4.30;;;3.90;99.90;;;;;;5038246;28;20434;-74
2023/01/27 03:58:37;;;;;;;7.37;4.07;;;4.00;99.90;;;;;;5035365;28;20432;-76
2023/01/27 04:01:07;;;;;;;9.90;4.23;;;3.90;99.90;;;;;;5031045;28;20518;-76
2023/01/27 04:06:56;;;;;;;12.70;5.90;;;4.10;99.90;;;;;;5035370;28;20913;-72
2023/01/27 04:09:27;;;;;;;12.93;5.50;;;4.10;99.90;;;;;;5034760;28;20424;-78
2023/01/27 04:11:59;;;;;;;8.70;4.73;;;4.00;99.90;;;;;;5038834;28;20524;-78
2023/01/27 04:17:39;;;;;;;9.40;3.17;;;4.00;99.90;;;;;;4992397;28;20460;-74
2023/01/27 04:20:15;;;;;;;6.43;3.30;;;4.30;99.90;;;;;;5014261;28;20498;-75
2023/01/27 04:22:48;;;;;;;3.07;2.70;;;4.10;99.90;;;;;;5043327;28;20754;-72
2023/01/27 04:25:39;;;;;;;3.60;2.80;;;4.20;99.90;;;;;;5036607;28;20432;-79
2023/01/27 04:32:02;;;;;;;;;;;;;;;;;;;;;
2023/01/27 04:34:39;;;;;;;10.17;4.50;;;4.20;99.90;;;;;;4999122;28;20537;-78
2023/01/27 04:37:11;;;;;;;10.27;5.80;;;4.00;99.90;;;;;;5043762;28;20448;-78
2023/01/27 04:40:02;;;;;;;8.90;6.00;;;4.10;99.90;;;;;;5046122;28;20533;-76
2023/01/27 04:42:32;;;;;;;7.33;3.73;;;4.00;99.90;;;;;;5014208;28;20532;-79
2023/01/27 04:45:00;;;;;;;11.83;4.50;;;4.00;99.90;;;;;;5043779;28;20435;-77
2023/01/27 04:47:30;;;;;;;8.60;4.67;;;3.90;99.90;;;;;;5049053;28;20533;-78
2023/01/27 04:50:07;;;;;;;5.73;2.87;;;4.00;99.90;;;;;;5054486;28;20475;-79
2023/01/27 04:52:44;;;;;;;16.20;5.43;;;4.00;99.90;;;;;;5050811;28;20535;-77
2023/01/27 04:55:11;;;;;;;7.80;3.77;;;4.10;99.90;;;;;;5060241;28;20445;-78
2023/01/27 04:58:19;;;;;;;5.33;2.10;;;4.00;99.90;;;;;;5050475;28;20506;-77
2023/01/27 05:00:52;;;;;;;11.13;4.00;;;4.00;99.90;;;;;;5060036;28;20512;-78
2023/01/27 05:03:21;;;;;;;9.10;3.93;;;4.20;99.90;;;;;;5054979;28;20488;-79
2023/01/27 05:06:00;;;;;;;11.37;4.03;;;4.20;99.90;;;;;;5058106;28;20477;-77
2023/01/27 05:08:29;;;;;;;16.30;5.10;;;4.20;99.90;;;;;;5058677;28;20533;-76
2023/01/27 05:10:56;;;;;;;11.90;6.33;;;4.20;99.90;;;;;;5047438;28;20515;-79
2023/01/27 05:13:39;;;;;;;30.57;4.37;;;4.20;99.90;;;;;;5041951;28;20429;-77
2023/01/27 05:16:15;;;;;;;5.93;4.10;;;4.20;99.90;;;;;;5012427;28;20476;-78
2023/01/27 05:18:43;;;;;;;10.40;4.90;;;4.10;99.90;;;;;;5041230;28;20455;-78
2023/01/27 05:21:21;;;;;;;8.80;4.77;;;4.00;99.90;;;;;;5039592;28;20523;-79
2023/01/27 05:23:53;;;;;;;8.40;6.27;;;4.10;99.90;;;;;;5037105;28;20551;-77
2023/01/27 05:26:23;;;;;;;5.77;3.50;;;4.00;99.90;;;;;;5039858;28;20509;-78
2023/01/27 05:32:07;;;;;;;7.40;3.93;;;4.00;99.90;;;;;;4979760;28;20486;-79
2023/01/27 05:34:52;;;;;;;7.20;3.60;;;4.10;99.90;;;;;;5037357;28;21114;-78
2023/01/27 05:37:54;;;;;;;7.53;4.37;;;4.20;99.90;;;;;;5049738;28;20477;-79
2023/01/27 05:40:34;;;;;;;7.83;3.80;;;4.20;99.90;;;;;;4935848;28;21345;-79
2023/01/27 05:43:11;;;;;;;6.17;3.63;;;4.30;99.90;;;;;;5007926;28;20483;-80
2023/01/27 05:48:22;;;;;;;8.00;3.90;;;4.10;99.90;;;;;;5049902;28;20500;-79
2023/01/27 05:51:24;;;;;;;4.97;3.83;;;4.20;99.90;;;;;;5045273;28;20562;-76
2023/01/27 05:54:09;;;;;;;10.03;4.43;;;4.20;99.90;;;;;;5031106;28;20461;-80
2023/01/27 05:56:56;;;;;;;6.53;3.23;;;4.30;99.90;;;;;;5048553;28;20465;-80
2023/01/27 06:00:04;;;;;;;6.20;3.70;;;4.20;99.90;;;;;;5056968;28;20484;-80
2023/01/27 06:03:02;;;;;;;5.80;2.97;;;4.30;99.90;;;;;;5014231;28;20509;-79
2023/01/27 06:09:57;;;;;;;5.40;3.13;;;4.30;99.90;;;;;;4926972;28;20579;-79
2023/01/27 06:12:27;;;;;;;3.70;2.33;;;4.20;99.90;;;;;;4956333;28;20520;-81
2023/01/27 06:14:59;;;;;;;5.17;3.47;;;4.30;99.90;;;;;;4962349;28;20514;-80
2023/01/27 06:17:27;;;;;;;6.73;3.17;;;4.40;99.90;;;;;;4946827;28;20454;-78
2023/01/27 06:22:41;;;;;;;3.57;2.10;;;4.30;99.90;;;;;;4944740;28;21120;-81
2023/01/27 06:25:36;;;;;;;5.33;3.50;;;4.30;99.90;;;;;;5034507;28;20457;-80
2023/01/27 06:28:45;;;;;;;7.57;3.43;;;4.40;99.90;;;;;;4983909;28;20496;-80
2023/01/27 06:31:28;;;;;;;9.33;5.03;;;4.20;99.90;;;;;;5032759;28;20434;-79
2023/01/27 06:34:13;;;;;;;9.03;3.43;;;4.30;99.90;;;;;;5039149;28;20414;-78
2023/01/27 06:36:51;;;;;;;6.20;4.03;;;4.30;99.90;;;;;;5028375;28;20443;-79
2023/01/27 06:40:00;;;;;;;5.50;3.20;;;4.40;99.90;;;;;;5033068;28;20503;-81
2023/01/27 06:43:01;;;;;;;7.43;3.20;;;4.40;99.90;;;;;;5032745;28;20481;-77
2023/01/27 06:46:08;;;;;;;6.77;3.60;;;4.50;99.90;;;;;;5036319;28;20511;-80
2023/01/27 06:48:59;;;;;;;4.70;3.10;;;4.50;99.90;;;;;;5034906;28;20546;-75
2023/01/27 06:51:47;;;;;;;7.20;4.20;;;4.40;99.90;;;;;;5002675;28;20438;-81
2023/01/27 06:54:54;;;;;;;3.90;3.43;;;4.30;99.90;;;;;;5010559;28;20462;-79
2023/01/27 06:57:33;;;;;;;7.33;3.30;;;4.30;99.90;;;;;;5038740;28;20451;-79
2023/01/27 07:00:16;;;;;;;3.00;2.70;;;4.40;99.90;;;;;;5040332;28;20516;-80
2023/01/27 07:02:45;;;;;;;6.03;3.20;;;4.40;99.90;;;;;;5030444;28;20531;-81
2023/01/27 07:05:39;;;;;;;5.30;3.40;;;4.50;99.90;;;;;;5039862;28;20459;-80
2023/01/27 07:08:06;;;;;;;3.70;2.30;;;4.50;99.90;;;;;;5039060;28;20533;-80
2023/01/27 07:10:39;;;;;;;2.07;1.90;;;4.50;99.90;;;;;;5044033;28;20478;-79
2023/01/27 07:13:41;;;;;;;4.13;3.20;;;4.50;99.90;;;;;;5037961;28;20430;-81
2023/01/27 07:19:49;;;;;;;8.37;4.67;;;4.40;99.90;;;;;;5021543;28;20427;-79
2023/01/27 07:22:32;;;;;;;5.10;2.70;;;4.60;99.90;;;;;;5034342;28;21170;-81
2023/01/27 07:25:21;;;;;;;5.97;2.77;;;4.70;99.90;;;;;;5044317;28;20456;-80
2023/01/27 07:30:59;;;;;;;8.17;4.70;;;4.50;99.90;;;;;;5007841;28;20431;-80
2023/01/27 07:36:39;;;;;;;1.87;1.73;;;4.60;99.90;;;;;;5034975;28;20507;-81
2023/01/27 07:39:27;;;;;;;6.50;4.23;;;4.60;99.90;;;;;;5028337;28;20462;-80
2023/01/27 07:41:54;;;;;;;3.43;2.20;;;4.50;99.90;;;;;;5040590;28;20489;-81
2023/01/27 07:44:27;;;;;;;6.93;3.10;;;4.60;99.90;;;;;;5035617;28;20439;-79
2023/01/27 07:46:55;;;;;;;7.40;4.40;;;4.60;99.90;;;;;;5044513;28;20434;-81
2023/01/27 07:49:45;;;;;;;6.70;4.20;;;4.50;99.90;;;;;;5044477;28;20485;-80
2023/01/27 07:52:46;;;;;;;5.97;4.57;;;4.60;99.90;;;;;;5030668;28;20449;-80
2023/01/27 07:58:30;;;;;;;6.30;4.13;;;4.70;99.90;;;;;;5035947;28;20745;-80
2023/01/27 08:00:58;;;;;;;3.70;2.80;;;4.70;99.90;;;;;;5037172;28;20445;-81
2023/01/27 08:03:39;;;;;;;7.00;3.63;;;4.70;99.90;;;;;;5042079;28;20502;-81
2023/01/27 09:21:10;;;;;;;5.20;3.60;;;5.00;99.90;;;;;;4644862;30;20472;-79
2023/01/27 11:21:11;;;;;;;4.23;2.37;;;5.60;99.90;;;;;;5728428;25;20427;-81
2023/01/27 11:40:40;;;;;;;2.90;1.73;;;5.60;99.90;;;;;;5775635;24;20368;-80
2023/01/27 12:13:27;;;;;;;3.40;2.00;;;6.20;99.90;;;;;;5906901;24;20408;-80
2023/01/27 12:49:15;;;;;;;1.97;1.80;;;5.80;99.90;;;;;;5738927;25;20430;-75
2023/01/27 12:51:47;;;;;;;4.13;2.50;;;5.70;99.90;;;;;;5727242;24;20516;-75
2023/01/27 12:54:16;;;;;;;5.00;1.70;;;5.80;99.90;;;;;;5707490;25;20388;-75
2023/01/27 12:56:44;;;;;;;3.73;2.67;;;5.90;99.90;;;;;;5767263;24;20409;-74
2023/01/27 12:59:17;;;;;;;2.23;1.70;;;6.00;99.90;;;;;;5815867;24;20452;-75
2023/01/27 13:01:45;;;;;;;2.00;1.70;;;5.90;99.90;;;;;;5865251;24;20530;-77
2023/01/27 13:04:17;;;;;;;1.87;1.77;;;5.80;99.90;;;;;;5926046;23;20391;-75
2023/01/27 13:06:47;;;;;;;1.93;1.50;;;5.80;99.90;;;;;;6088109;23;20823;-73
2023/01/27 13:09:26;;;;;;;3.00;1.87;;;5.90;99.90;;;;;;6086197;23;20566;-75
2023/01/27 13:11:55;;;;;;;1.37;0.93;;;6.00;99.90;;;;;;6131185;23;20455;-75
2023/01/27 13:14:31;;;;;;;2.60;2.33;;;5.90;99.90;;;;;;6156148;23;20904;-74
2023/01/27 13:16:59;;;;;;;3.57;1.80;;;6.00;99.90;;;;;;6145888;23;20390;-75
2023/01/27 13:19:35;;;;;;;2.50;1.87;;;6.00;99.90;;;;;;6148910;23;21118;-75
2023/01/27 13:22:03;;;;;;;6.97;4.00;;;6.00;99.90;;;;;;6147702;23;20509;-75
2023/01/27 13:24:36;;;;;;;2.33;2.10;;;6.00;99.90;;;;;;6149210;23;20957;-75
2023/01/27 13:27:10;;;;;;;2.27;1.17;;;5.90;99.90;;;;;;6145227;23;20519;-74
2023/01/27 13:29:40;;;;;;;1.47;1.37;;;5.70;99.90;;;;;;6148503;23;20535;-75
2023/01/27 13:32:18;;;;;;;2.17;1.63;;;5.60;99.90;;;;;;6149624;23;20412;-75
2023/01/27 13:34:50;;;;;;;2.27;2.07;;;5.70;99.90;;;;;;6147090;23;20372;-75
2023/01/27 13:37:20;;;;;;;1.70;1.47;;;5.60;99.90;;;;;;6145792;23;20430;-75
2023/01/27 13:39:56;;;;;;;2.17;1.50;;;5.80;99.90;;;;;;6150293;23;20379;-75
2023/01/27 13:42:28;;;;;;;2.30;2.10;;;5.80;99.90;;;;;;6149365;23;20405;-75
2023/01/27 13:45:03;;;;;;;1.77;1.50;;;5.70;99.90;;;;;;6152833;23;20401;-75
2023/01/27 13:47:40;;;;;;;3.07;1.97;;;5.60;99.90;;;;;;6151621;23;20818;-74
2023/01/27 13:50:16;;;;;;;1.47;1.10;;;5.50;99.90;;;;;;6145874;23;20429;-75
2023/01/27 13:52:44;;;;;;;2.57;1.23;;;5.60;99.90;;;;;;6145819;23;20427;-75
2023/01/27 13:55:14;;;;;;;1.80;1.20;;;5.60;99.90;;;;;;6103265;23;20385;-75
2023/01/27 13:58:03;;;;;;;2.30;2.10;;;5.50;99.90;;;;;;6093974;23;20900;-75
2023/01/27 14:00:40;;;;;;;3.07;2.10;;;5.50;99.90;;;;;;6150339;23;20372;-73
2023/01/27 14:03:38;;;;;;;2.73;1.70;;;5.60;99.90;;;;;;6159029;23;20401;-75
2023/01/27 14:06:32;;;;;;;3.00;2.70;;;5.50;99.90;;;;;;6148001;23;20839;-75
2023/01/27 14:09:18;;;;;;;2.60;2.13;;;5.50;99.90;;;;;;6145152;23;20485;-75
2023/01/27 14:11:52;;;;;;;2.20;1.43;;;5.60;99.90;;;;;;6142753;23;20461;-75
2023/01/27 14:14:32;;;;;;;2.33;2.00;;;5.70;99.90;;;;;;6146289;23;20687;-75
2023/01/27 14:17:25;;;;;;;2.93;1.93;;;5.80;99.90;;;;;;6149371;23;20400;-69
2023/01/27 14:20:03;;;;;;;3.77;3.00;;;5.80;99.90;;;;;;6144098;23;20561;-72
2023/01/27 14:22:37;;;;;;;3.83;2.53;;;5.60;99.90;;;;;;6142268;23;20452;-69
2023/01/27 14:25:15;;;;;;;4.17;2.77;;;5.50;99.90;;;;;;6147474;23;20489;-70
2023/01/27 14:27:45;;;;;;;1.83;1.70;;;5.40;99.90;;;;;;6142365;23;20364;-70
2023/01/27 14:30:20;;;;;;;2.97;1.63;;;5.50;99.90;;;;;;6144591;23;20411;-71
2023/01/27 14:32:56;;;;;;;1.87;1.67;;;5.50;99.90;;;;;;6143899;23;20946;-70
2023/01/27 14:35:32;;;;;;;2.73;2.43;;;5.60;99.90;;;;;;6145976;23;20397;-70
2023/01/27 14:38:09;;;;;;;3.40;2.53;;;5.70;99.90;;;;;;6142686;23;20468;-68
2023/01/27 14:40:47;;;;;;;3.43;3.13;;;5.60;99.90;;;;;;6147198;23;20386;-71
2023/01/27 14:43:22;;;;;;;1.63;1.53;;;5.70;99.90;;;;;;6147069;23;20377;-71
2023/01/27 14:45:54;;;;;;;4.93;2.90;;;5.80;99.90;;;;;;6153667;23;20380;-70
2023/01/27 14:48:40;;;;;;;7.90;3.50;;;5.70;99.90;;;;;;6145807;23;20368;-69
2023/01/27 14:51:15;;;;;;;9.53;5.47;;;5.60;99.90;;;;;;6147545;23;20433;-70
2023/01/27 14:53:57;;;;;;;3.13;2.93;;;5.60;99.90;;;;;;6147857;23;20372;-71
2023/01/27 14:56:33;;;;;;;3.27;1.97;;;5.70;99.90;;;;;;6164823;23;20386;-70
2023/01/27 14:59:10;;;;;;;4.87;2.50;;;5.60;99.90;;;;;;6151089;23;20393;-73
2023/01/27 15:01:48;;;;;;;5.23;3.90;;;5.50;99.90;;;;;;6150446;23;20952;-72
2023/01/27 15:04:44;;;;;;;6.00;3.30;;;5.60;99.90;;;;;;6157796;23;20406;-71
2023/01/27 15:07:18;;;;;;;5.60;3.30;;;5.60;99.90;;;;;;6151663;23;20702;-72
2023/01/27 15:10:01;;;;;;;4.43;3.20;;;5.60;99.90;;;;;;6150397;23;20951;-71
2023/01/27 15:12:46;;;;;;;2.83;2.50;;;5.40;99.90;;;;;;6145564;23;20520;-71
2023/01/27 15:15:41;;;;;;;2.03;1.63;;;5.40;99.90;;;;;;6146355;23;20398;-71
2023/01/27 15:18:37;;;;;;;2.63;2.20;;;5.40;99.90;;;;;;6145215;23;20406;-72
2023/01/27 15:21:24;;;;;;;3.17;2.60;;;5.30;99.90;;;;;;6147784;23;20404;-71
2023/01/27 15:24:17;;;;;;;1.90;1.67;;;5.20;99.90;;;;;;6156290;23;20402;-71
2023/01/27 15:26:46;;;;;;;16.00;8.73;;;5.30;99.90;;;;;;6141708;23;20902;-70
2023/01/27 15:29:15;;;;;;;3.00;2.10;;;5.30;99.90;;;;;;6145678;23;20574;-71
2023/01/27 15:31:43;;;;;;;6.90;2.33;;;5.40;99.90;;;;;;6143150;23;20495;-71
2023/01/27 15:34:20;;;;;;;5.83;3.60;;;5.30;99.90;;;;;;6140921;23;20417;-71
2023/01/27 15:37:11;;;;;;;11.53;6.00;;;5.30;99.90;;;;;;6145842;23;20904;-72
2023/01/27 15:39:54;;;;;;;4.60;2.20;;;5.30;99.90;;;;;;6146002;23;20701;-72
2023/01/27 15:42:25;;;;;;;4.97;1.80;;;5.30;99.90;;;;;;6143481;23;20436;-71
2023/01/27 15:45:02;;;;;;;1.70;1.60;;;5.20;99.90;;;;;;6146666;23;20453;-72
2023/01/27 15:47:32;;;;;;;1.83;1.70;;;5.40;99.90;;;;;;6095727;23;20491;-72
2023/01/27 15:50:15;;;;;;;6.63;3.30;;;5.30;99.90;;;;;;6145266;23;20527;-71
2023/01/27 15:52:45;;;;;;;4.90;2.53;;;5.30;99.90;;;;;;6149271;23;20464;-71
2023/01/27 15:55:25;;;;;;;3.40;2.53;;;5.40;99.90;;;;;;6143953;23;20456;-73
2023/01/27 15:58:03;;;;;;;7.03;5.57;;;5.40;99.90;;;;;;6144880;23;20398;-71
2023/01/27 16:00:36;;;;;;;6.33;4.37;;;5.40;99.90;;;;;;6144516;23;20389;-71
2023/01/27 16:03:06;;;;;;;4.13;3.60;;;5.30;99.90;;;;;;6149285;23;20806;-71
2023/01/27 16:05:37;;;;;;;3.73;2.07;;;5.30;99.90;;;;;;6144098;23;20385;-71
2023/01/27 16:08:13;;;;;;;2.13;1.93;;;5.20;99.90;;;;;;6141228;23;20404;-70
2023/01/27 16:10:41;;;;;;;1.53;1.43;;;5.20;99.90;;;;;;6147425;23;20405;-71
2023/01/27 16:13:26;;;;;;;6.73;2.30;;;5.20;99.90;;;;;;6148040;23;20459;-72
2023/01/27 16:16:26;;;;;;;1.73;1.63;;;5.10;99.90;;;;;;6142813;23;20421;-70
2023/01/27 16:19:00;;;;;;;4.13;2.03;;;5.20;99.90;;;;;;6132536;23;20614;-71
2023/01/27 16:21:40;;;;;;;2.07;1.40;;;5.20;99.90;;;;;;6141643;23;20411;-71
2023/01/27 16:24:17;;;;;;;2.33;1.87;;;5.10;99.90;;;;;;6092910;23;20415;-70
2023/01/27 16:26:50;;;;;;;7.10;2.83;;;5.20;99.90;;;;;;6143053;23;20384;-70
2023/01/27 16:29:27;;;;;;;3.47;3.20;;;5.20;99.90;;;;;;6143450;23;20756;-72
2023/01/27 16:32:00;;;;;;;4.03;2.33;;;5.30;99.90;;;;;;6144786;23;20424;-71
2023/01/27 16:34:36;;;;;;;1.93;1.73;;;5.20;99.90;;;;;;6145877;23;20932;-70
2023/01/27 16:37:16;;;;;;;2.30;1.57;;;5.10;99.90;;;;;;6153941;23;20372;-70
2023/01/27 16:39:50;;;;;;;4.00;3.03;;;5.10;99.90;;;;;;6143487;23;20394;-70
2023/01/27 16:42:18;;;;;;;2.70;2.00;;;5.10;99.90;;;;;;6146387;23;20408;-71
2023/01/27 16:44:49;;;;;;;2.60;1.83;;;5.20;99.90;;;;;;6138932;23;20384;-72
2023/01/27 16:47:25;;;;;;;4.83;2.37;;;5.00;99.90;;;;;;6137828;23;20372;-70
2023/01/27 16:49:54;;;;;;;2.73;2.07;;;5.00;99.90;;;;;;6158864;23;20407;-71
2023/01/27 16:52:28;;;;;;;2.47;1.50;;;5.10;99.90;;;;;;6149393;23;20442;-70
2023/01/27 16:54:59;;;;;;;1.50;1.40;;;5.10;99.90;;;;;;6150511;23;20385;-71
2023/01/27 16:57:33;;;;;;;3.30;2.30;;;5.10;99.90;;;;;;6150984;23;20441;-70
2023/01/27 17:00:05;;;;;;;2.30;1.70;;;5.10;99.90;;;;;;6143185;23;20408;-70
2023/01/27 17:02:34;;;;;;;1.80;1.67;;;5.00;99.90;;;;;;6151496;23;20426;-71
2023/01/27 17:05:05;;;;;;;2.93;2.10;;;4.90;99.90;;;;;;6146746;23;20413;-71
2023/01/27 17:07:33;;;;;;;3.47;1.97;;;4.90;99.90;;;;;;6150576;23;20443;-71
2023/01/27 17:10:12;;;;;;;2.73;1.93;;;5.00;99.90;;;;;;6147962;23;20415;-70
2023/01/27 17:12:44;;;;;;;6.17;3.47;;;5.00;99.90;;;;;;6150395;23;20434;-70
2023/01/27 17:15:19;;;;;;;1.90;1.70;;;5.00;99.90;;;;;;6156058;23;20446;-70
2023/01/27 17:17:48;;;;;;;4.27;3.10;;;5.10;99.90;;;;;;6150670;23;20368;-75
2023/01/27 17:20:28;;;;;;;6.93;2.37;;;4.90;99.90;;;;;;6149661;23;20408;-71
2023/01/27 17:22:59;;;;;;;3.40;2.67;;;4.90;99.90;;;;;;6150303;23;20455;-71
2023/01/27 17:25:33;;;;;;;2.63;2.20;;;4.90;99.90;;;;;;6098589;23;20491;-71
2023/01/27 17:28:02;;;;;;;2.80;2.20;;;4.80;99.90;;;;;;6149948;23;20841;-71
2023/01/27 17:30:35;;;;;;;3.50;1.73;;;4.70;99.90;;;;;;6149710;23;20448;-71
2023/01/27 17:33:05;;;;;;;3.20;2.27;;;4.70;99.90;;;;;;6153314;23;20496;-71
2023/01/27 17:35:35;;;;;;;1.53;1.00;;;4.60;99.90;;;;;;6149509;23;20437;-69
2023/01/27 17:38:12;;;;;;;6.67;3.37;;;4.70;99.90;;;;;;6136104;23;20408;-71
2023/01/27 17:40:42;;;;;;;1.93;1.53;;;4.60;99.90;;;;;;6142132;23;20364;-71
2023/01/27 17:43:30;;;;;;;3.70;2.40;;;4.70;99.90;;;;;;6140902;23;20414;-71
2023/01/27 17:46:16;;;;;;;4.80;3.13;;;4.70;99.90;;;;;;6148121;23;20409;-71
2023/01/27 17:48:49;;;;;;;2.20;1.80;;;4.70;99.90;;;;;;6143812;23;20372;-71
2023/01/27 17:51:20;;;;;;;1.40;1.23;;;4.60;99.90;;;;;;6140360;23;20522;-72
2023/01/27 17:53:48;;;;;;;1.97;1.80;;;4.60;99.90;;;;;;6158312;23;20452;-70
2023/01/27 17:56:21;;;;;;;3.43;2.60;;;4.60;99.90;;;;;;6146578;23;20398;-72
2023/01/27 17:58:53;;;;;;;3.97;2.57;;;4.60;99.90;;;;;;6143746;23;20367;-71
2023/01/27 18:01:25;;;;;;;2.63;1.57;;;4.70;99.90;;;;;;6143805;23;21196;-72
2023/01/27 18:03:55;;;;;;;3.43;2.00;;;4.70;99.90;;;;;;6141556;23;20372;-72
2023/01/27 18:06:27;;;;;;;2.37;2.13;;;4.80;99.90;;;;;;6145003;23;20401;-71
2023/01/27 18:08:57;;;;;;;6.37;4.07;;;4.90;99.90;;;;;;6143748;23;20420;-71
2023/01/27 18:11:30;;;;;;;2.13;1.83;;;4.90;99.90;;;;;;6142732;23;20495;-69
2023/01/27 18:14:00;;;;;;;2.40;1.87;;;4.80;99.90;;;;;;6144983;23;20399;-69
2023/01/27 18:16:28;;;;;;;3.70;2.23;;;4.80;99.90;;;;;;6146921;23;20724;-70
2023/01/27 18:19:18;;;;;;;1.80;1.43;;;4.80;99.90;;;;;;6145451;23;20801;-70
2023/01/27 18:21:45;;;;;;;2.80;1.83;;;4.80;99.90;;;;;;6142634;23;20421;-70
2023/01/27 18:24:19;;;;;;;4.57;2.70;;;4.80;99.90;;;;;;6146225;23;20893;-71
2023/01/27 18:26:50;;;;;;;3.00;1.87;;;4.80;99.90;;;;;;6147891;23;20477;-73
2023/01/27 18:29:21;;;;;;;2.10;1.60;;;4.80;99.90;;;;;;6145222;23;20391;-71
2023/01/27 18:31:52;;;;;;;3.37;1.80;;;4.80;99.90;;;;;;6147076;23;20452;-72
2023/01/27 18:34:26;;;;;;;2.97;1.47;;;4.70;99.90;;;;;;6148514;23;20734;-71
2023/01/27 18:36:55;;;;;;;2.77;2.30;;;4.70;99.90;;;;;;6143183;23;20504;-72
2023/01/27 18:39:33;;;;;;;4.23;2.40;;;4.70;99.90;;;;;;6136598;23;20841;-70
2023/01/27 18:42:02;;;;;;;3.57;2.23;;;4.80;99.90;;;;;;6140870;23;20435;-69
2023/01/27 18:44:34;;;;;;;2.07;1.50;;;4.80;99.90;;;;;;6146421;23;20431;-71
2023/01/27 18:47:27;;;;;;;2.80;2.03;;;4.70;99.90;;;;;;6150599;23;20431;-71
2023/01/27 18:50:07;;;;;;;2.67;1.70;;;4.70;99.90;;;;;;6139519;23;20510;-71
2023/01/27 18:52:33;;;;;;;2.00;1.70;;;4.70;99.90;;;;;;6144644;23;20806;-70
2023/01/27 18:55:10;;;;;;;2.70;1.97;;;4.70;99.90;;;;;;6147897;23;20479;-70
2023/01/27 18:57:38;;;;;;;2.40;1.63;;;4.60;99.90;;;;;;6152498;23;20452;-71
2023/01/27 19:00:07;;;;;;;2.30;1.63;;;4.70;99.90;;;;;;6148114;23;21156;-71
2023/01/27 19:02:38;;;;;;;2.20;1.13;;;4.60;99.90;;;;;;6149302;23;20458;-68
2023/01/27 19:05:17;;;;;;;2.47;1.43;;;4.70;99.90;;;;;;6145025;23;20729;-70
2023/01/27 19:07:45;;;;;;;2.63;2.43;;;4.60;99.90;;;;;;6148929;23;20480;-70
2023/01/27 19:10:15;;;;;;;1.93;1.43;;;4.60;99.90;;;;;;6142371;23;20430;-70
2023/01/27 19:12:44;;;;;;;3.00;2.40;;;4.60;99.90;;;;;;6156673;23;20463;-68
2023/01/27 19:15:15;;;;;;;1.60;1.10;;;4.50;99.90;;;;;;6151677;23;20438;-70
2023/01/27 19:17:45;;;;;;;2.70;1.90;;;4.60;99.90;;;;;;6143733;23;20520;-70
2023/01/27 19:20:17;;;;;;;2.77;2.37;;;4.50;99.90;;;;;;6149088;23;20573;-70
2023/01/27 19:22:46;;;;;;;11.07;3.50;;;4.50;99.90;;;;;;6147188;23;20437;-70
2023/01/27 19:25:13;;;;;;;2.53;1.90;;;4.50;99.90;;;;;;6150354;23;20498;-71
2023/01/27 19:27:45;;;;;;;3.10;1.80;;;4.50;99.90;;;;;;6146787;23;20436;-71
2023/01/27 19:30:25;;;;;;;1.97;1.87;;;4.50;99.90;;;;;;6148530;23;20436;-71
2023/01/27 19:32:55;;;;;;;1.90;1.70;;;4.50;99.90;;;;;;6147687;23;20489;-71
2023/01/27 19:35:30;;;;;;;1.70;1.60;;;4.40;99.90;;;;;;6146207;23;20799;-71
2023/01/27 19:38:00;;;;;;;1.97;1.77;;;4.50;99.90;;;;;;6149139;23;20416;-69
2023/01/27 19:40:29;;;;;;;5.57;2.70;;;4.60;99.90;;;;;;6148955;23;20775;-70
2023/01/27 19:42:58;;;;;;;3.77;1.80;;;4.60;99.90;;;;;;6098243;23;20438;-71
2023/01/27 19:45:27;;;;;;;1.30;0.93;;;4.70;99.90;;;;;;6159683;23;20980;-71
2023/01/27 19:47:58;;;;;;;3.40;3.10;;;4.60;99.90;;;;;;6142602;23;20428;-71
2023/01/27 19:50:27;;;;;;;7.03;4.73;;;4.50;99.90;;;;;;6145567;23;20461;-70
2023/01/27 19:52:55;;;;;;;4.47;3.40;;;4.60;99.90;;;;;;6154606;23;20465;-70
2023/01/27 19:55:22;;;;;;;3.00;2.10;;;4.70;99.90;;;;;;6143999;23;20453;-71
2023/01/27 19:57:51;;;;;;;1.90;1.60;;;4.70;99.90;;;;;;6117087;23;20435;-71
2023/01/27 20:00:26;;;;;;;2.70;1.27;;;4.70;99.90;;;;;;6145327;23;20481;-71
2023/01/27 20:02:54;;;;;;;2.50;1.67;;;4.70;99.90;;;;;;6144195;23;20769;-71
2023/01/27 20:05:21;;;;;;;3.60;3.00;;;4.60;99.90;;;;;;6145436;23;20419;-71
2023/01/27 20:07:49;;;;;;;2.23;1.60;;;4.80;99.90;;;;;;6144205;23;20438;-72
2023/01/27 20:10:19;;;;;;;6.50;3.20;;;4.70;99.90;;;;;;6145640;23;20495;-71